Vandalia, MT

6:02 AM MDT on August 29, 2014 (GMT -0600)
Wokal-Glasgow International | Change Station
CLOSE
Current Station
Airport
Location: Glasgow,
Elevation: 2293 ft
Nearby Weather Stations
Active Advisory: Flood Warning Active Notice: Local Storm Report

Elev 2293 ft 48.21 °N, 106.62 °W | Updated 9 minutes ago

Mostly Cloudy
Mostly Cloudy
56 °F
Feels Like 56 °F
N
10
Wind Variable Wind from NW

Today
High -- | Low -- °F
--% Chance of Precip.
Yesterday
High -- | Low -- °F
Precip. -- in
6:21 AM 7:54 PM
Waxing Crescent, 14% visible
Pressure 29.98 in
Visibility 10.0 miles
Clouds Mostly Cloudy 4700 ft
Mostly Cloudy 5500 ft
Dew Point 54 °F
Humidity 93%
Rainfall 0.13 in
Snow Depth Not available.
UV 0 out of 12
Pollen 8.70 out of 12
Air Quality Not available.
Flu Activity Not available.
METAR KGGW 291153Z AUTO 32009KT 10SM BKN047 BKN055 13/12 A3001 RMK AO2 SLP152 60013 70013 T01330122 10167 20133 51022

More Conditions Fewer Conditions

Pressure 29.98 in
Visibility 10.0 miles
Clouds Mostly Cloudy 4700 ft
Mostly Cloudy 5500 ft
Dew Point 54 °F
Humidity 93%
Rainfall 0.13 in
Snow Depth Not available.
UV 0 out of 12
Pollen 8.70 out of 12
Air Quality Not available.
Flu Activity Not available.
METAR KGGW 291153Z AUTO 32009KT 10SM BKN047 BKN055 13/12 A3001 RMK AO2 SLP152 60013 70013 T01330122 10167 20133 51022

More Conditions Fewer Conditions

10-Day Weather Forecast

Almanac

Astronomy

Aug. 29, 2014 Rise Set
Actual Time 6:21 AM MDT 7:54 PM MDT
Civil Twilight 5:48 AM MDT 8:27 PM MDT
Nautical Twilight 5:08 AM MDT 9:07 PM MDT
Astronomical Twilight 4:24 AM MDT 9:50 PM MDT
Moon 10:34 AM MDT 9:31 PM MDT
Length of Visible Light 14h 39m
Length of Day
13h 33m
Tomorrow will be 3m 24s shorter.
Waxing Crescent, 14% of the Moon is Illuminated
Today
Waxing Crescent
Sep 2
First Quarter
Sep 8
Full
Sep 15
Last Quarter
Sep 24
New

Today's Extremes

State Highs State Lows

Community

WunderPhotos

Upload Photos

1,748,214 photos uploaded!

Nearby

Snow Depth

Station Depth Elevation
Crystal Lake 1 in 6050 ft
Daisy Peak 0 in 7600 ft
Spur Park 0 in 8100 ft
Deadman Creek 0 in 6450 ft
Onion Park 0 in 7410 ft

Earthquake Activity

City Distance Mag. Time & Date
No recent earthquake activity has been reported nearby.
Minimum magnitude displayed is 2.5.

Coastal Water Temperatures

Place Temperature
No Stations Reporting

Nearby Weather Stations